Harmony, WV

5:26 PM EDT on May 25, 2015 (GMT -0400)
Park Avenue | | Change Station
CLOSE
Current Station
Personal Weather Station
Location: Spencer, WV
Elevation: 820 ft
Nearby Weather Stations

Elev 820 ft 38.79 °N, 81.36 °W | Updated 0 second ago

Partly Cloudy
Partly Cloudy
82.7 °F
Feels Like 85 °F
N
0.0
Wind Variable Wind from South
Gusts 5.0 mph

Today
High -- | Low -- °F
--% Chance of Precip.
Yesterday
High -- | Low -- °F
Precip. -- in
6:06 AM 8:39 PM
First Quarter, 52% visible
Pressure 30.14 in
Visibility 10.0 miles
Clouds Mostly Cloudy 6000 ft
Heat Index 85 °F
Dew Point 66 °F
Humidity 57%
Rainfall 0.00 in
Snow Depth Not available.
UV 3 out of 12
Pollen 7.40 out of 12
Air Quality Not available.
Flu Activity Sporadic
METAR KCRW 252054Z 27007KT 10SM BKN060 28/16 A3015 RMK AO2 SLP204 T02830156 56011

More Conditions Fewer Conditions

Pressure 30.14 in
Visibility 10.0 miles
Clouds Mostly Cloudy 6000 ft
Heat Index 85 °F
Dew Point 66 °F
Humidity 57%
Rainfall 0.00 in
Snow Depth Not available.
UV 3 out of 12
Pollen 7.40 out of 12
Air Quality Not available.
Flu Activity Sporadic
METAR KCRW 252054Z 27007KT 10SM BKN060 28/16 A3015 RMK AO2 SLP204 T02830156 56011

More Conditions Fewer Conditions

10-Day Weather Forecast

Almanac

Astronomy

May. 25, 2015 Rise Set
Actual Time
Civil Twilight
Nautical Twilight
Astronomical Twilight
Moon
Length of Visible Light
Length of Day
Tomorrow will be .
, % of the Moon is Illuminated

Today's Extremes

State Highs State Lows

Community

WunderPhotos

Upload Photos

1,824,138 photos uploaded!

WunderBlogs® & News

Nearby

Air Quality

  Air Quality AQ Index Pollutant
Not available.

Snow Depth

Station Depth Elevation

Earthquake Activity

City Distance Mag. Time & Date
Minimum magnitude displayed is 2.5.

Coastal Water Temperatures

Place Temperature

Stations

Nearby Weather Stations

Station Location Temp. Windchill Dew Point Humidity Wind Precip. Elev Updated Type